EDTY

Adolf Würth Airport

Schwäbisch Hall, Germany
TAF EDTY 171700Z 1718/1803 25015G25KT 9999 BKN020 TEMPO 1720/1802 2000 SHSN BKN010TCU
Issued Valid From Valid To
Jan-17 @ 17:00 UTC
(6 hours ago)
Jan-17 @ 18:00 UTC
(5 hours ago)
Jan-18 @ 03:00 UTC
(in 4 hours)
Jan-17 @ 18:00 to Jan-18 @ 03:00
TAF EDTY 171700Z 1718/1803 25015G25KT 9999 BKN020
Wind Visibility Clouds
250° at 15 knots
 Gusting to 25 knots
10,000+ meters
  • Broken at 2,000' AGL
Temporary Jan-17 @ 20:00 to Jan-18 @ 02:00
TEMPO 1720/1802 2000 SHSN BKN010TCU
Visibility Clouds Conditions
1,996 meters
  • Broken at 1,000' AGL
  • Snow
TAF EDTY 171700Z 1718/1803 25015G25KT 9999 BKN020 TEMPO 1720/1802 2000 SHSN BKN010TCU
Issued Jan-17 @ 17:00 UTC
(6 hours ago)
Valid From Jan-17 @ 18:00 UTC
(5 hours ago)
Valid To Jan-18 @ 03:00 UTC
(in 4 hours)
Jan-17 @ 18:00 - Jan-18 @ 03:00
Wind Visibility
250° at 15 knots
 Gusting to 25 knots
10,000+ meters
Clouds
  • Broken at 2,000' AGL
Temporary Jan-17 @ 20:00 - Jan-18 @ 02:00
Clouds
  • Broken at 1,000' AGL
Conditions
  • Snow